createdAt,value
2023-05-14T00:01:08.537Z,10.13
2023-05-14T00:03:56.819Z,10.13
2023-05-14T00:06:47.234Z,10.06
2023-05-14T00:09:36.205Z,10.00
2023-05-14T00:12:24.967Z,10.06
2023-05-14T00:15:13.307Z,10.00
2023-05-14T00:18:01.098Z,9.94
2023-05-14T00:20:49.456Z,9.94
2023-05-14T00:23:37.630Z,9.88
2023-05-14T00:26:25.777Z,9.88
2023-05-14T00:29:13.874Z,9.75
2023-05-14T00:32:01.757Z,9.69
2023-05-14T00:34:50.875Z,9.75
2023-05-14T00:37:40.475Z,9.75
2023-05-14T00:40:29.934Z,9.69
2023-05-14T00:43:20.784Z,9.63
2023-05-14T00:46:09.175Z,9.56
2023-05-14T00:49:00.001Z,9.63
2023-05-14T00:51:48.477Z,9.56
2023-05-14T00:54:37.095Z,9.50
2023-05-14T00:57:25.144Z,9.50
2023-05-14T01:00:15.187Z,9.56
2023-05-14T01:03:05.396Z,9.56
2023-05-14T01:06:26.669Z,9.50
2023-05-14T01:09:35.302Z,9.50
2023-05-14T01:12:38.631Z,9.50
2023-05-14T01:15:34.804Z,9.38
2023-05-14T01:18:24.526Z,9.38
2023-05-14T01:21:43.109Z,9.38
2023-05-14T01:24:31.185Z,9.38
2023-05-14T01:28:13.663Z,9.31
2023-05-14T01:31:14.562Z,9.31
2023-05-14T01:34:05.752Z,9.25
2023-05-14T01:36:58.972Z,9.25
2023-05-14T01:39:47.801Z,9.25
2023-05-14T01:42:36.973Z,9.31
2023-05-14T01:45:25.218Z,9.31
2023-05-14T01:48:13.314Z,9.31
2023-05-14T01:51:03.217Z,9.25
2023-05-14T01:53:51.446Z,9.25
2023-05-14T01:56:39.429Z,9.31
2023-05-14T01:59:29.952Z,9.38
2023-05-14T02:02:18.291Z,9.31
2023-05-14T02:05:09.600Z,9.31
2023-05-14T02:07:58.312Z,9.25
2023-05-14T02:10:46.866Z,9.25
2023-05-14T02:13:35.004Z,9.25
2023-05-14T02:16:23.054Z,9.25
2023-05-14T02:19:14.735Z,9.19
2023-05-14T02:22:04.002Z,9.19
2023-05-14T02:24:52.476Z,9.13
2023-05-14T02:27:40.844Z,9.06
2023-05-14T02:30:30.203Z,9.06
2023-05-14T02:33:19.065Z,9.00
2023-05-14T02:36:08.792Z,9.00
2023-05-14T02:39:01.241Z,9.00
2023-05-14T02:41:49.001Z,8.94
2023-05-14T02:44:38.297Z,8.94
2023-05-14T02:47:26.222Z,8.94
2023-05-14T02:50:14.602Z,8.88
2023-05-14T02:53:02.602Z,8.88
2023-05-14T02:55:50.834Z,8.88
2023-05-14T02:58:39.465Z,8.94
2023-05-14T03:01:27.513Z,9.00
2023-05-14T03:04:16.369Z,9.06
2023-05-14T03:07:04.678Z,9.06
2023-05-14T03:09:52.469Z,9.06
2023-05-14T03:12:41.888Z,9.13
2023-05-14T03:15:29.860Z,9.19
2023-05-14T03:18:17.952Z,9.19
2023-05-14T03:21:09.277Z,9.25
2023-05-14T03:23:57.498Z,9.31
2023-05-14T03:26:45.584Z,9.38
2023-05-14T03:29:33.826Z,9.44
2023-05-14T03:32:22.112Z,9.56
2023-05-14T03:35:11.337Z,9.63
2023-05-14T03:38:00.033Z,9.75
2023-05-14T03:40:51.426Z,9.81
2023-05-14T03:43:40.159Z,9.94
2023-05-14T03:46:29.455Z,10.19
2023-05-14T03:49:18.064Z,10.25
2023-05-14T03:52:06.701Z,10.38
2023-05-14T03:54:55.996Z,10.44
2023-05-14T03:57:46.235Z,10.56
2023-05-14T04:00:34.766Z,10.69
2023-05-14T04:03:22.955Z,10.81
2023-05-14T04:06:11.480Z,10.94
2023-05-14T04:08:59.955Z,11.06
2023-05-14T04:11:48.556Z,11.19
2023-05-14T04:14:38.781Z,11.25
2023-05-14T04:17:27.761Z,11.44
2023-05-14T04:20:15.942Z,11.63
2023-05-14T04:23:05.887Z,11.75
2023-05-14T04:25:53.825Z,11.94
2023-05-14T04:28:41.900Z,12.13
2023-05-14T04:31:31.831Z,12.31
2023-05-14T04:34:20.605Z,12.50
2023-05-14T04:37:09.114Z,12.75
2023-05-14T04:39:57.331Z,13.06
2023-05-14T04:42:45.592Z,13.38
2023-05-14T04:45:34.375Z,13.69
2023-05-14T04:48:25.365Z,13.94
2023-05-14T04:51:14.028Z,14.19
2023-05-14T04:54:02.581Z,14.50
2023-05-14T04:56:55.200Z,14.81
2023-05-14T04:59:44.250Z,15.13
2023-05-14T05:02:34.887Z,15.38
2023-05-14T05:05:31.156Z,16.00
2023-05-14T05:08:24.057Z,16.75
2023-05-14T05:11:16.452Z,18.31
2023-05-14T05:14:04.916Z,21.50
2023-05-14T05:16:52.753Z,24.06
2023-05-14T05:19:44.128Z,25.88
2023-05-14T05:22:33.306Z,26.81
2023-05-14T05:25:21.386Z,27.88
2023-05-14T05:28:09.658Z,28.63
2023-05-14T05:30:57.483Z,29.06
2023-05-14T05:33:45.798Z,29.69
2023-05-14T05:36:34.063Z,29.56
2023-05-14T05:39:22.081Z,30.31
2023-05-14T05:42:22.709Z,30.31
2023-05-14T05:45:11.479Z,31.06
2023-05-14T05:48:02.436Z,31.25
2023-05-14T05:50:51.576Z,31.38
2023-05-14T05:53:39.700Z,31.75
2023-05-14T05:56:28.494Z,32.00
2023-05-14T05:59:16.993Z,32.00
2023-05-14T06:02:06.984Z,32.19
2023-05-14T06:04:54.947Z,32.88
2023-05-14T06:07:43.212Z,33.50
2023-05-14T06:10:32.019Z,34.00
2023-05-14T06:13:20.700Z,33.81
2023-05-14T06:16:08.924Z,34.38
2023-05-14T06:18:56.947Z,34.06
2023-05-14T06:21:45.124Z,34.25
2023-05-14T06:24:33.132Z,34.88
2023-05-14T06:27:23.605Z,35.31
2023-05-14T06:30:12.793Z,36.75
2023-05-14T06:33:00.826Z,37.00
2023-05-14T06:35:49.353Z,36.25
2023-05-14T06:38:37.734Z,36.25
2023-05-14T06:41:26.319Z,35.94
2023-05-14T06:44:17.216Z,35.19
2023-05-14T06:47:08.858Z,36.63
2023-05-14T06:49:58.903Z,37.94
2023-05-14T06:52:47.698Z,37.06
2023-05-14T06:55:36.180Z,38.19
2023-05-14T06:58:24.466Z,39.31
2023-05-14T07:01:12.813Z,39.44
2023-05-14T07:04:03.032Z,37.81
2023-05-14T07:06:51.613Z,38.75
2023-05-14T07:09:42.231Z,38.88
2023-05-14T07:12:31.317Z,39.31
2023-05-14T07:15:20.202Z,40.88
2023-05-14T07:18:08.035Z,42.13
2023-05-14T07:20:57.145Z,42.00
2023-05-14T07:23:45.315Z,42.13
2023-05-14T07:26:33.764Z,44.56
2023-05-14T07:29:21.873Z,43.69
2023-05-14T07:32:09.967Z,45.31
2023-05-14T07:34:57.926Z,47.00
2023-05-14T07:37:46.816Z,45.88
2023-05-14T07:40:37.840Z,45.75
2023-05-14T07:43:27.150Z,47.13
2023-05-14T07:46:18.204Z,47.94
2023-05-14T07:49:05.960Z,48.00
2023-05-14T07:51:54.286Z,47.81
2023-05-14T07:54:44.664Z,48.50
2023-05-14T07:57:34.288Z,48.94
2023-05-14T08:00:22.726Z,48.06
2023-05-14T08:03:11.956Z,49.25
2023-05-14T08:06:00.177Z,50.50
2023-05-14T08:08:50.510Z,50.81
2023-05-14T08:11:39.352Z,50.69
2023-05-14T08:14:27.919Z,51.50
2023-05-14T08:17:16.973Z,52.56
2023-05-14T08:20:07.025Z,52.50
2023-05-14T08:22:58.752Z,52.31
2023-05-14T08:25:48.453Z,52.69
2023-05-14T08:28:36.622Z,51.94
2023-05-14T08:31:27.307Z,51.94
2023-05-14T08:34:16.628Z,52.13
2023-05-14T08:37:05.894Z,52.13
2023-05-14T08:39:54.711Z,52.50
2023-05-14T08:42:45.246Z,54.31
2023-05-14T08:45:38.967Z,54.44
2023-05-14T08:48:34.020Z,54.50
2023-05-14T08:51:22.500Z,53.13
2023-05-14T08:54:15.429Z,52.25
2023-05-14T08:57:05.099Z,51.88
2023-05-14T08:59:56.515Z,53.94
2023-05-14T09:02:46.723Z,53.63
2023-05-14T09:05:35.063Z,54.75
2023-05-14T09:08:23.862Z,55.06
2023-05-14T09:11:13.673Z,53.94
2023-05-14T09:14:01.801Z,53.13
2023-05-14T09:16:51.534Z,54.19
2023-05-14T09:19:41.572Z,53.88
2023-05-14T09:22:33.940Z,51.81
2023-05-14T09:25:28.422Z,49.56
2023-05-14T09:28:18.883Z,46.44
2023-05-14T09:31:07.344Z,46.88
2023-05-14T09:33:55.349Z,43.00
2023-05-14T09:36:43.672Z,49.06
2023-05-14T09:39:33.917Z,52.50
2023-05-14T09:42:21.701Z,54.88
2023-05-14T09:45:11.452Z,56.38
2023-05-14T09:48:01.490Z,56.69
2023-05-14T09:50:50.738Z,58.00
2023-05-14T09:53:41.599Z,56.94
2023-05-14T09:56:30.832Z,56.50
2023-05-14T09:59:19.214Z,57.31
2023-05-14T10:02:37.875Z,58.69
2023-05-14T10:05:37.489Z,60.31
2023-05-14T10:08:36.678Z,60.00
2023-05-14T10:11:31.177Z,58.19
2023-05-14T10:14:27.136Z,55.44
2023-05-14T10:17:18.626Z,55.50
2023-05-14T10:20:12.196Z,54.69
2023-05-14T10:23:03.867Z,52.00
2023-05-14T10:25:55.664Z,52.94
2023-05-14T10:28:50.022Z,52.44
2023-05-14T10:31:48.636Z,52.13
2023-05-14T10:34:38.978Z,54.75
2023-05-14T10:37:28.461Z,56.50
2023-05-14T10:40:18.695Z,54.19
2023-05-14T10:43:09.037Z,51.50
2023-05-14T10:45:58.967Z,55.00
2023-05-14T10:48:47.428Z,57.19
2023-05-14T10:51:36.955Z,56.56
2023-05-14T10:54:29.373Z,57.69
2023-05-14T10:57:23.216Z,58.50
2023-05-14T11:00:14.216Z,59.13
2023-05-14T11:03:06.090Z,57.44
2023-05-14T11:05:55.800Z,53.44
2023-05-14T11:08:46.612Z,51.81
2023-05-14T11:11:36.952Z,52.88
2023-05-14T11:14:25.201Z,52.25
2023-05-14T11:17:13.630Z,52.63
2023-05-14T11:20:02.106Z,53.75
2023-05-14T11:22:51.940Z,53.31
2023-05-14T11:25:42.079Z,46.56
2023-05-14T11:28:31.372Z,38.75
2023-05-14T11:31:23.465Z,36.69
2023-05-14T11:34:13.676Z,39.50
2023-05-14T11:37:07.621Z,35.94
2023-05-14T11:40:00.803Z,32.81
2023-05-14T11:42:53.871Z,31.31
2023-05-14T11:45:43.031Z,30.44
2023-05-14T11:48:34.632Z,29.31
2023-05-14T11:51:23.535Z,28.81
2023-05-14T11:54:14.464Z,28.75
2023-05-14T11:57:09.012Z,28.81
2023-05-14T11:59:58.064Z,29.25
2023-05-14T12:02:50.195Z,29.25
2023-05-14T12:05:40.497Z,28.88
2023-05-14T12:08:33.256Z,28.69
2023-05-14T12:11:23.138Z,28.38
2023-05-14T12:14:16.328Z,28.69
2023-05-14T12:17:09.965Z,28.69
2023-05-14T12:19:57.991Z,27.94
2023-05-14T12:22:46.299Z,27.06
2023-05-14T12:25:41.778Z,26.81
2023-05-14T12:28:36.948Z,26.94
2023-05-14T12:31:35.070Z,27.38
2023-05-14T12:34:23.100Z,27.31
2023-05-14T12:37:12.032Z,26.63
2023-05-14T12:40:00.566Z,26.44
2023-05-14T12:42:49.122Z,26.13
2023-05-14T12:45:37.333Z,25.75
2023-05-14T12:48:26.269Z,25.88
2023-05-14T12:51:15.781Z,25.88
2023-05-14T12:54:05.046Z,26.06
2023-05-14T12:56:53.068Z,26.25
2023-05-14T12:59:41.704Z,26.75
2023-05-14T13:02:30.771Z,27.19
2023-05-14T13:05:19.142Z,26.88
2023-05-14T13:08:08.325Z,26.69
2023-05-14T13:10:57.853Z,25.94
2023-05-14T13:13:46.104Z,25.44
2023-05-14T13:16:34.588Z,25.25
2023-05-14T13:19:24.850Z,24.56
2023-05-14T13:22:18.958Z,24.25
2023-05-14T13:25:08.802Z,24.44
2023-05-14T13:27:59.451Z,25.38
2023-05-14T13:31:08.003Z,26.31
2023-05-14T13:33:58.362Z,26.94
2023-05-14T13:36:47.340Z,26.75
2023-05-14T13:39:35.638Z,25.94
2023-05-14T13:42:24.108Z,25.75
2023-05-14T13:45:13.362Z,25.38
2023-05-14T13:48:01.639Z,25.00
2023-05-14T13:50:50.591Z,25.00
2023-05-14T13:53:38.868Z,25.19
2023-05-14T13:56:27.926Z,25.56
2023-05-14T13:59:16.760Z,26.00
2023-05-14T14:02:05.599Z,26.19
2023-05-14T14:04:53.796Z,26.13
2023-05-14T14:07:42.323Z,26.00
2023-05-14T14:10:31.083Z,26.06
2023-05-14T14:13:21.377Z,26.06
2023-05-14T14:16:12.714Z,25.94
2023-05-14T14:19:01.694Z,25.75
2023-05-14T14:24:38.981Z,25.00
2023-05-14T14:27:28.457Z,24.81
2023-05-14T14:30:16.132Z,24.56
2023-05-14T14:33:04.672Z,24.69
2023-05-14T14:35:53.990Z,24.88
2023-05-14T14:38:42.804Z,24.63
2023-05-14T14:41:31.130Z,24.44
2023-05-14T14:44:22.480Z,23.88
2023-05-14T14:47:10.723Z,23.31
2023-05-14T14:49:59.152Z,23.06
2023-05-14T14:52:48.256Z,22.94
2023-05-14T14:55:37.195Z,23.00
2023-05-14T14:58:25.550Z,22.75
2023-05-14T15:01:14.917Z,22.44
2023-05-14T15:04:04.003Z,22.00
2023-05-14T15:06:52.478Z,21.88
2023-05-14T15:09:42.511Z,21.69
2023-05-14T15:12:31.041Z,21.63
2023-05-14T15:15:19.638Z,21.63
2023-05-14T15:18:08.099Z,21.38
2023-05-14T15:20:57.179Z,21.31
2023-05-14T15:23:47.748Z,21.31
2023-05-14T15:26:35.994Z,21.38
2023-05-14T15:29:27.155Z,21.31
2023-05-14T15:32:15.792Z,21.38
2023-05-14T15:35:05.148Z,21.38
2023-05-14T15:37:59.748Z,21.56
2023-05-14T15:40:50.984Z,21.81
2023-05-14T15:43:42.698Z,21.88
2023-05-14T15:46:33.121Z,21.88
2023-05-14T15:49:21.707Z,21.63
2023-05-14T15:52:13.684Z,21.44
2023-05-14T15:55:01.599Z,21.56
2023-05-14T15:57:50.569Z,21.75
2023-05-14T16:00:41.212Z,21.81
2023-05-14T16:03:33.652Z,21.88
2023-05-14T16:06:25.573Z,21.81
2023-05-14T16:09:13.349Z,21.75
2023-05-14T16:12:03.121Z,21.63
2023-05-14T16:14:52.299Z,21.38
2023-05-14T16:17:42.678Z,21.19
2023-05-14T16:20:31.234Z,21.00
2023-05-14T16:23:21.279Z,20.81
2023-05-14T16:26:09.307Z,20.69
2023-05-14T16:28:58.472Z,20.50
2023-05-14T16:31:52.232Z,20.38
2023-05-14T16:34:42.086Z,20.19
2023-05-14T16:37:32.116Z,20.00
2023-05-14T16:40:22.355Z,19.75
2023-05-14T16:43:11.572Z,19.63
2023-05-14T16:46:02.366Z,19.56
2023-05-14T16:48:52.671Z,19.56
2023-05-14T16:51:44.362Z,19.56
2023-05-14T16:54:34.734Z,19.63
2023-05-14T16:57:25.718Z,19.75
2023-05-14T17:00:15.949Z,19.88
2023-05-14T17:03:04.901Z,19.94
2023-05-14T17:05:53.951Z,19.75
2023-05-14T17:08:42.062Z,19.63
2023-05-14T17:11:30.230Z,19.56
2023-05-14T17:14:18.658Z,19.50
2023-05-14T17:17:07.523Z,19.44
2023-05-14T17:19:56.766Z,19.31
2023-05-14T17:22:45.223Z,19.25
2023-05-14T17:25:33.768Z,19.19
2023-05-14T17:28:27.089Z,19.06
2023-05-14T17:31:18.755Z,19.00
2023-05-14T17:34:07.635Z,18.94
2023-05-14T17:36:56.223Z,18.81
2023-05-14T17:39:44.342Z,18.75
2023-05-14T17:42:32.590Z,18.69
2023-05-14T17:45:21.586Z,18.63
2023-05-14T17:48:12.503Z,18.56
2023-05-14T17:51:01.004Z,18.44
2023-05-14T17:53:49.666Z,18.25
2023-05-14T17:56:38.037Z,18.13
2023-05-14T17:59:26.620Z,17.94
2023-05-14T18:02:16.702Z,17.88
2023-05-14T18:05:05.604Z,17.75
2023-05-14T18:07:55.291Z,17.63
2023-05-14T18:10:44.119Z,17.50
2023-05-14T18:13:35.098Z,17.38
2023-05-14T18:16:24.131Z,17.25
2023-05-14T18:19:15.197Z,17.19
2023-05-14T18:22:03.656Z,17.13
2023-05-14T18:24:52.865Z,17.13
2023-05-14T18:27:44.633Z,17.06
2023-05-14T18:30:33.423Z,17.06
2023-05-14T18:33:24.138Z,16.94
2023-05-14T18:36:13.457Z,16.88
2023-05-14T18:39:05.795Z,16.81
2023-05-14T18:41:56.683Z,16.75
2023-05-14T18:44:44.868Z,16.63
2023-05-14T18:47:34.749Z,16.56
2023-05-14T18:50:27.132Z,16.44
2023-05-14T18:53:15.347Z,16.19
2023-05-14T18:56:05.200Z,16.06
2023-05-14T18:58:55.051Z,15.94
2023-05-14T19:01:43.581Z,15.81
2023-05-14T19:04:33.552Z,15.75
2023-05-14T19:07:27.950Z,15.56
2023-05-14T19:10:18.953Z,15.44
2023-05-14T19:13:07.087Z,15.44
2023-05-14T19:15:56.103Z,15.44
2023-05-14T19:18:44.113Z,15.38
2023-05-14T19:21:32.873Z,15.38
2023-05-14T19:24:20.680Z,15.31
2023-05-14T19:27:19.414Z,15.31
2023-05-14T19:30:09.425Z,15.31
2023-05-14T19:33:04.595Z,15.31
2023-05-14T19:35:56.281Z,15.31
2023-05-14T19:38:44.830Z,15.31
2023-05-14T19:41:34.979Z,15.25
2023-05-14T19:44:24.480Z,15.19
2023-05-14T19:47:14.137Z,15.13
2023-05-14T19:50:04.404Z,15.13
2023-05-14T19:52:52.688Z,15.06
2023-05-14T19:55:44.338Z,15.00
2023-05-14T19:58:34.847Z,14.94
2023-05-14T20:01:23.025Z,14.88
2023-05-14T20:04:11.561Z,14.88
2023-05-14T20:07:01.303Z,14.88
2023-05-14T20:09:49.561Z,14.88
2023-05-14T20:12:37.997Z,14.81
2023-05-14T20:15:26.857Z,14.75
2023-05-14T20:18:15.283Z,14.63
2023-05-14T20:21:05.712Z,14.56
2023-05-14T20:23:54.182Z,14.56
2023-05-14T20:26:44.104Z,14.50
2023-05-14T20:29:35.073Z,14.50
2023-05-14T20:32:25.167Z,14.44
2023-05-14T20:35:14.747Z,14.44
2023-05-14T20:38:04.563Z,14.44
2023-05-14T20:40:54.058Z,14.44
2023-05-14T20:43:44.582Z,14.38
2023-05-14T20:46:33.169Z,14.38
2023-05-14T20:49:21.389Z,14.25
2023-05-14T20:52:10.315Z,14.19
2023-05-14T20:55:00.755Z,14.13
2023-05-14T20:57:49.932Z,14.00
2023-05-14T21:00:39.317Z,13.88
2023-05-14T21:03:27.555Z,13.88
2023-05-14T21:06:16.420Z,13.81
2023-05-14T21:09:04.622Z,13.69
2023-05-14T21:11:54.143Z,13.63
2023-05-14T21:14:43.365Z,13.63
2023-05-14T21:17:34.652Z,13.63
2023-05-14T21:20:25.072Z,13.56
2023-05-14T21:23:14.816Z,13.56
2023-05-14T21:26:03.432Z,13.56
2023-05-14T21:28:53.459Z,13.56
2023-05-14T21:31:41.386Z,13.56
2023-05-14T21:34:31.234Z,13.56
2023-05-14T21:37:21.945Z,13.56
2023-05-14T21:40:12.585Z,13.56
2023-05-14T21:43:06.153Z,13.56
2023-05-14T21:45:54.508Z,13.63
2023-05-14T21:48:42.604Z,13.56
2023-05-14T21:51:32.354Z,13.56
2023-05-14T21:54:21.173Z,13.56
2023-05-14T21:57:09.519Z,13.56
2023-05-14T21:59:58.289Z,13.50
2023-05-14T22:02:47.235Z,13.50
2023-05-14T22:05:36.963Z,13.50
2023-05-14T22:08:24.948Z,13.50
2023-05-14T22:11:13.781Z,13.56
2023-05-14T22:14:04.407Z,13.50
2023-05-14T22:16:55.286Z,13.50
2023-05-14T22:19:43.781Z,13.50
2023-05-14T22:22:32.379Z,13.44
2023-05-14T22:25:20.351Z,13.38
2023-05-14T22:28:08.406Z,13.31
2023-05-14T22:30:59.873Z,13.31
2023-05-14T22:33:47.689Z,13.31
2023-05-14T22:36:35.794Z,13.31
2023-05-14T22:39:24.005Z,13.25
2023-05-14T22:42:12.242Z,13.19
2023-05-14T22:45:00.297Z,13.13
2023-05-14T22:47:49.207Z,13.06
2023-05-14T22:50:37.346Z,13.00
2023-05-14T22:53:25.676Z,12.94
2023-05-14T22:56:15.541Z,12.94
2023-05-14T22:59:04.307Z,12.88
2023-05-14T23:01:52.174Z,12.81
2023-05-14T23:04:40.625Z,12.88
2023-05-14T23:07:28.784Z,12.81
2023-05-14T23:10:17.992Z,12.81
2023-05-14T23:13:06.851Z,12.81
2023-05-14T23:15:55.881Z,12.81
2023-05-14T23:18:45.086Z,12.88
2023-05-14T23:21:33.390Z,12.88
2023-05-14T23:24:22.405Z,12.88
2023-05-14T23:27:11.818Z,12.88
2023-05-14T23:29:59.924Z,12.88
2023-05-14T23:32:49.810Z,12.88
2023-05-14T23:35:39.876Z,12.88
2023-05-14T23:38:27.647Z,12.88
2023-05-14T23:41:15.814Z,12.88
2023-05-14T23:44:04.032Z,12.88
2023-05-14T23:46:53.721Z,12.88
2023-05-14T23:49:41.969Z,12.88
2023-05-14T23:52:30.066Z,12.88
2023-05-14T23:55:19.232Z,12.94
2023-05-14T23:58:07.633Z,12.94
